Time;durP1;ratioP1;P1;durP2;ratioP2;P2;SDS_P1;SDS_P2;PMS_P1;PMS_P2;Temp;Humidity;BMP_temperature;BMP_pressure;BME280_temperature;BME280_humidity;BME280_pressure;Samples;Min_cycle;Max_cycle;Signal;HPM_P1;HPM_P2
2020/12/17 00:00:17;;;;;;;10.32;9.32;;;12.00;99.90;;;12.23;82.01;101110.75;5073135;28;20037;-77
2020/12/17 00:02:45;;;;;;;10.25;9.20;;;12.00;99.90;;;12.29;82.01;101118.69;5073105;28;20118;-76
2020/12/17 00:05:13;;;;;;;12.00;9.10;;;12.00;99.90;;;12.20;82.10;101114.31;5072846;28;20173;-76
2020/12/17 00:07:42;;;;;;;10.70;9.60;;;12.00;99.90;;;12.13;81.97;101103.75;5073061;28;20082;-76
2020/12/17 00:10:11;;;;;;;12.82;8.98;;;12.00;99.90;;;12.19;81.94;101117.88;5072742;28;20083;-77
2020/12/17 00:12:41;;;;;;;10.30;8.88;;;12.00;99.90;;;12.23;81.81;101119.56;5072869;28;20123;-76
2020/12/17 00:15:10;;;;;;;10.52;9.02;;;12.00;99.90;;;12.30;81.56;101117.78;5072911;28;20436;-77
2020/12/17 00:17:42;;;;;;;10.38;9.15;;;12.10;99.90;;;12.26;81.50;101111.63;5072499;28;20120;-76
2020/12/17 00:20:10;;;;;;;10.30;9.20;;;12.10;99.90;;;12.35;81.40;101124.81;5072494;28;20067;-76
2020/12/17 00:22:40;;;;;;;10.30;9.20;;;12.10;99.90;;;12.20;80.83;101077.19;5072456;28;20037;-76
2020/12/17 00:25:09;;;;;;;10.02;9.13;;;12.20;99.90;;;12.38;80.89;101110.63;5072722;28;20118;-76
2020/12/17 00:27:37;;;;;;;10.43;9.32;;;12.20;99.90;;;12.22;81.30;101104.56;5071304;28;20057;-76
2020/12/17 00:30:05;;;;;;;13.00;9.63;;;12.10;99.90;;;12.14;81.55;101114.34;5072249;28;20049;-76
2020/12/17 00:32:33;;;;;;;10.75;9.65;;;12.00;99.90;;;12.11;81.75;101116.16;5071340;28;20482;-76
2020/12/17 00:35:00;;;;;;;10.32;9.30;;;12.00;99.90;;;12.09;81.71;101094.94;5072337;28;20106;-76
2020/12/17 00:37:29;;;;;;;11.43;10.23;;;12.00;99.90;;;12.24;81.74;101110.75;5071205;28;20044;-76
2020/12/17 00:39:57;;;;;;;9.45;8.55;;;12.00;99.90;;;12.17;81.67;101094.91;5072229;28;20055;-76
2020/12/17 00:42:25;;;;;;;11.65;10.00;;;12.00;99.90;;;12.19;81.44;101101.06;5072048;28;20037;-76
2020/12/17 00:44:52;;;;;;;9.95;8.95;;;12.00;99.90;;;12.25;81.58;101106.34;5072196;28;20068;-76
2020/12/17 00:47:21;;;;;;;10.65;8.73;;;12.00;99.90;;;12.24;81.44;101099.25;5072119;28;20132;-75
2020/12/17 00:49:48;;;;;;;10.80;9.32;;;12.00;99.90;;;12.30;81.54;101104.50;5072063;28;20040;-75
2020/12/17 00:52:21;;;;;;;12.10;9.40;;;12.10;99.90;;;12.14;81.44;101101.09;5072024;28;20049;-76
2020/12/17 00:54:50;;;;;;;10.57;9.45;;;12.00;99.90;;;11.98;81.56;101061.44;5071193;28;20048;-76
2020/12/17 00:57:19;;;;;;;10.48;9.45;;;12.00;99.90;;;12.14;81.36;101086.94;5072296;28;20040;-76
2020/12/17 00:59:46;;;;;;;12.63;9.80;;;12.10;99.90;;;12.26;81.44;101105.41;5072008;28;20040;-76
2020/12/17 01:02:13;;;;;;;10.27;9.15;;;12.00;99.90;;;12.36;81.80;101104.47;5072189;28;20040;-76
2020/12/17 01:04:41;;;;;;;12.45;9.77;;;12.10;99.90;;;12.28;81.39;101100.97;5071724;28;20040;-75
2020/12/17 01:07:08;;;;;;;10.10;8.95;;;12.10;99.90;;;12.31;81.77;101103.63;5072478;28;20072;-76
2020/12/17 01:09:35;;;;;;;13.50;9.30;;;12.10;99.90;;;12.22;81.64;101107.22;5071858;28;20070;-76
2020/12/17 01:12:06;;;;;;;10.48;9.48;;;12.10;99.90;;;12.32;81.77;101113.34;5070861;28;20053;-76
2020/12/17 01:14:34;;;;;;;10.77;9.15;;;12.10;99.90;;;12.26;81.84;101108.06;5071950;28;20474;-76
2020/12/17 01:17:03;;;;;;;11.40;9.93;;;12.10;99.90;;;12.23;82.02;101106.31;5072243;28;20044;-76
2020/12/17 01:19:31;;;;;;;12.68;9.98;;;12.10;99.90;;;12.28;82.13;101114.25;5071774;28;20045;-76
2020/12/17 01:21:58;;;;;;;11.32;10.05;;;12.10;99.90;;;12.26;82.11;101106.31;5071976;28;20575;-75
2020/12/17 01:24:26;;;;;;;11.88;10.65;;;12.10;99.90;;;12.26;82.25;101110.72;5070653;28;20098;-75
2020/12/17 01:26:56;;;;;;;12.13;10.57;;;12.10;99.90;;;12.25;82.16;101112.50;5070558;28;20057;-75
2020/12/17 01:29:25;;;;;;;10.80;9.80;;;12.10;99.90;;;12.27;82.58;101110.72;5070609;28;20055;-75
2020/12/17 01:31:57;;;;;;;11.98;10.07;;;12.00;99.90;;;12.32;82.19;101116.00;5071525;28;20482;-75
2020/12/17 01:34:27;;;;;;;10.77;9.75;;;12.10;99.90;;;12.19;82.35;101095.75;5072022;28;20056;-76
2020/12/17 01:36:56;;;;;;;10.90;9.70;;;12.10;99.90;;;12.32;82.21;101118.66;5071982;28;20121;-76
2020/12/17 01:39:23;;;;;;;11.57;10.48;;;12.10;99.90;;;12.20;82.13;101082.47;5071867;28;20137;-76
2020/12/17 01:41:51;;;;;;;10.95;9.82;;;12.10;99.90;;;11.84;81.99;101026.19;5071974;28;20442;-76
2020/12/17 01:44:18;;;;;;;11.68;10.48;;;12.10;99.90;;;12.32;82.39;101103.63;5071892;28;20441;-75
2020/12/17 01:46:47;;;;;;;12.13;11.02;;;12.10;99.90;;;12.22;82.35;101112.53;5071500;28;20045;-75
2020/12/17 01:49:24;;;;;;;12.63;10.35;;;12.10;99.90;;;12.34;82.20;101120.41;5071435;28;20453;-76
2020/12/17 01:51:53;;;;;;;11.15;10.05;;;12.10;99.90;;;12.32;82.43;101126.59;5071836;28;20075;-75
2020/12/17 01:54:21;;;;;;;11.27;10.02;;;12.10;99.90;;;12.38;82.48;101123.91;5071758;28;20048;-76
2020/12/17 01:56:59;;;;;;;11.05;9.95;;;12.10;99.90;;;12.37;82.36;101127.44;5071451;28;20135;-76
2020/12/17 01:59:29;;;;;;;12.23;11.02;;;12.10;99.90;;;12.40;82.23;101125.66;5071505;28;20459;-76
2020/12/17 02:02:03;;;;;;;12.30;11.10;;;12.20;99.90;;;12.32;82.32;101124.84;5071378;28;20067;-76
2020/12/17 02:04:30;;;;;;;12.32;11.23;;;12.10;99.90;;;12.33;82.27;101115.97;5071525;28;20037;-75
2020/12/17 02:06:59;;;;;;;12.00;10.80;;;12.10;99.90;;;12.32;82.50;101131.91;5071242;28;20052;-76
2020/12/17 02:09:27;;;;;;;12.18;10.95;;;12.10;99.90;;;12.31;82.63;101127.50;5071221;28;20045;-75
2020/12/17 02:11:55;;;;;;;13.82;11.90;;;12.00;99.90;;;11.61;82.42;101013.09;5071643;28;20419;-76
2020/12/17 02:14:24;;;;;;;13.45;11.88;;;12.00;99.90;;;12.24;82.78;101121.34;5071300;28;20040;-75
2020/12/17 02:16:52;;;;;;;14.20;11.50;;;12.00;99.90;;;12.33;82.66;101128.38;5072531;28;20060;-75
2020/12/17 02:19:21;;;;;;;13.23;11.98;;;12.10;99.90;;;12.25;82.91;101135.50;5074858;28;20049;-76
2020/12/17 02:21:50;;;;;;;13.95;12.45;;;12.00;99.90;;;12.17;83.25;101124.94;5075105;28;20072;-76
2020/12/17 02:24:23;;;;;;;13.15;11.93;;;11.90;99.90;;;12.14;83.32;101127.59;5074811;28;20504;-76
2020/12/17 02:26:50;;;;;;;14.15;12.68;;;11.90;99.90;;;12.15;83.68;101128.50;5073653;28;20776;-75
2020/12/17 02:29:18;;;;;;;14.48;12.93;;;11.90;99.90;;;12.14;83.68;101124.06;5074674;28;20055;-76
2020/12/17 02:31:46;;;;;;;14.70;12.57;;;11.90;99.90;;;12.02;83.47;101092.34;5074894;28;20052;-75
2020/12/17 02:34:13;;;;;;;13.48;12.18;;;11.90;99.90;;;12.02;83.69;101084.41;5074633;28;20551;-75
2020/12/17 02:36:41;;;;;;;15.18;13.57;;;12.00;99.90;;;12.20;83.55;101118.72;5074808;28;20044;-76
2020/12/17 02:39:08;;;;;;;16.10;12.70;;;12.00;99.90;;;12.04;83.56;101094.09;5073732;28;20044;-75
2020/12/17 02:41:37;;;;;;;12.65;11.32;;;11.90;99.90;;;12.15;84.15;101120.53;5074259;28;20044;-76
2020/12/17 02:44:04;;;;;;;14.70;12.88;;;11.90;99.90;;;12.15;84.02;101115.25;5074848;28;20115;-75
2020/12/17 02:46:31;;;;;;;14.90;13.40;;;11.90;99.90;;;12.10;84.12;101117.06;5074362;28;20150;-75
2020/12/17 02:48:59;;;;;;;14.05;12.55;;;11.80;99.90;;;12.02;84.54;101126.81;5074223;28;20123;-75
2020/12/17 02:51:26;;;;;;;15.07;12.82;;;11.80;99.90;;;11.99;84.93;101121.53;5073198;28;20048;-75
2020/12/17 02:53:56;;;;;;;19.25;14.32;;;11.70;99.90;;;11.90;85.19;101126.88;5074465;28;20101;-75
2020/12/17 02:56:23;;;;;;;19.98;14.90;;;11.70;99.90;;;11.80;85.79;101128.72;5074706;28;20090;-75
2020/12/17 02:58:52;;;;;;;21.42;15.57;;;11.60;99.90;;;11.44;86.21;101087.31;5073141;28;20056;-75
2020/12/17 03:01:19;;;;;;;20.33;14.70;;;11.50;99.90;;;11.73;86.40;101122.53;5074508;28;20129;-75
2020/12/17 03:03:46;;;;;;;18.98;14.88;;;11.40;99.90;;;11.61;86.22;101088.13;5074318;28;20567;-75
2020/12/17 03:06:14;;;;;;;17.42;15.63;;;11.50;99.90;;;11.71;86.44;101113.72;5074253;28;20054;-75
2020/12/17 03:08:42;;;;;;;19.20;15.93;;;11.50;99.90;;;11.45;86.66;101090.88;5074207;28;20437;-76
2020/12/17 03:11:09;;;;;;;18.27;16.35;;;11.40;99.90;;;11.49;86.79;101092.63;5073781;28;20079;-75
2020/12/17 03:13:37;;;;;;;18.90;16.90;;;11.40;99.90;;;11.67;86.84;101127.00;5074299;28;20094;-75
2020/12/17 03:16:05;;;;;;;20.13;16.35;;;11.40;99.90;;;11.57;87.04;101130.56;5074104;28;20057;-75
2020/12/17 03:18:33;;;;;;;17.25;15.43;;;11.30;99.90;;;11.57;87.16;101139.41;5074295;28;20075;-75
2020/12/17 03:21:00;;;;;;;16.77;15.07;;;11.30;99.90;;;11.57;87.12;101128.78;5073942;28;20386;-75
2020/12/17 03:23:27;;;;;;;18.42;16.52;;;11.30;99.90;;;11.58;87.10;101134.94;5073695;28;20210;-75
2020/12/17 03:25:55;;;;;;;18.40;16.10;;;11.30;99.90;;;11.49;87.20;101124.41;5073424;28;20064;-75
2020/12/17 03:28:22;;;;;;;19.15;15.75;;;11.30;99.90;;;11.56;87.05;101140.25;5073694;28;20044;-75
2020/12/17 03:30:49;;;;;;;18.08;16.27;;;11.30;99.90;;;11.54;87.34;101142.03;5073567;28;20043;-75
2020/12/17 03:33:18;;;;;;;16.98;15.27;;;11.20;99.90;;;11.37;86.87;101106.78;5073745;28;20452;-75
2020/12/17 03:35:46;;;;;;;17.50;15.70;;;11.30;99.90;;;11.53;87.13;101139.41;5073718;28;20045;-75
2020/12/17 03:38:13;;;;;;;18.60;16.75;;;11.30;99.90;;;11.55;87.23;101145.56;5073662;28;20111;-74
2020/12/17 03:40:41;;;;;;;18.35;16.25;;;11.30;99.90;;;11.57;86.85;101150.00;5073829;28;20424;-75
2020/12/17 03:43:08;;;;;;;18.38;16.42;;;11.30;99.90;;;11.52;87.25;101145.56;5073495;28;20113;-75
2020/12/17 03:45:35;;;;;;;17.15;15.45;;;11.30;99.90;;;11.15;87.31;101091.84;5073447;28;20045;-75
2020/12/17 03:48:03;;;;;;;18.67;16.77;;;11.20;99.90;;;11.32;87.08;101139.47;5073645;28;20060;-75
2020/12/17 03:50:31;;;;;;;18.30;16.50;;;11.20;99.90;;;11.34;87.46;101178.28;5073360;28;20047;-75
2020/12/17 03:52:58;;;;;;;19.92;17.92;;;11.20;99.90;;;11.40;87.61;101165.03;5073692;28;20082;-75
2020/12/17 03:55:26;;;;;;;18.42;16.48;;;11.20;99.90;;;10.02;87.48;100929.00;5105883;28;20048;-76
2020/12/17 03:57:53;;;;;;;17.80;16.00;;;11.20;99.90;;;11.53;87.36;101176.47;5073125;28;20044;-75
2020/12/17 04:00:21;;;;;;;18.27;16.48;;;11.20;99.90;;;11.44;87.62;101180.03;5072058;28;20555;-75
2020/12/17 04:02:48;;;;;;;18.83;16.88;;;11.20;99.90;;;11.40;87.54;101169.47;5073164;28;20115;-76
2020/12/17 04:05:16;;;;;;;18.95;17.05;;;11.20;99.90;;;11.46;87.58;101194.16;5071828;28;20044;-75
2020/12/17 04:07:44;;;;;;;19.58;17.63;;;11.20;99.90;;;11.46;87.86;101199.44;5071751;28;20036;-75
2020/12/17 04:10:11;;;;;;;18.50;16.73;;;11.20;99.90;;;11.42;87.75;101192.41;5071527;28;20106;-75
2020/12/17 04:12:39;;;;;;;20.30;18.17;;;11.20;99.90;;;11.25;88.03;101167.72;5072964;28;20052;-75
2020/12/17 04:15:06;;;;;;;19.83;17.92;;;11.10;99.90;;;11.33;88.36;101187.13;5072585;28;20113;-75
2020/12/17 04:17:34;;;;;;;19.10;17.30;;;11.10;99.90;;;11.41;88.46;101187.13;5105364;28;20052;-76
2020/12/17 04:20:01;;;;;;;20.52;18.50;;;11.10;99.90;;;11.39;88.20;101181.81;5072605;28;20505;-75
2020/12/17 04:22:28;;;;;;;20.73;18.73;;;11.10;99.90;;;11.22;88.28;101150.97;5072787;28;20041;-75
2020/12/17 04:24:57;;;;;;;19.02;17.02;;;11.10;99.90;;;11.51;88.07;101175.59;5072484;28;20473;-75
2020/12/17 04:27:24;;;;;;;19.98;17.83;;;11.20;99.90;;;11.52;87.98;101172.06;5072861;28;20056;-75
2020/12/17 04:29:52;;;;;;;20.20;18.10;;;11.20;99.90;;;11.38;87.63;101144.75;5072798;28;20044;-75
2020/12/17 04:32:19;;;;;;;19.35;17.30;;;11.30;99.90;;;11.63;87.48;101176.44;5072616;28;20508;-76
2020/12/17 04:34:47;;;;;;;20.77;18.17;;;11.30;99.90;;;11.67;87.11;101167.63;5071264;28;20044;-75
2020/12/17 04:37:15;;;;;;;18.85;16.85;;;11.40;99.90;;;11.72;87.08;101172.91;5072331;28;20048;-75
2020/12/17 04:39:42;;;;;;;20.25;18.25;;;11.40;99.90;;;11.74;86.94;101169.38;5071720;28;20049;-75
2020/12/17 04:42:12;;;;;;;18.88;16.98;;;11.40;99.90;;;11.46;86.53;101132.34;5071302;28;20482;-75
2020/12/17 04:44:42;;;;;;;19.48;17.20;;;11.40;99.90;;;11.64;86.74;101170.25;5072486;28;20044;-74
2020/12/17 04:47:15;;;;;;;17.73;16.03;;;11.40;99.90;;;11.71;86.70;101189.72;5072507;28;20040;-75
2020/12/17 04:49:50;;;;;;;18.85;16.77;;;11.40;99.90;;;11.62;86.65;101184.38;5072131;28;20306;-75
2020/12/17 04:52:19;;;;;;;18.55;16.75;;;11.40;99.90;;;11.52;86.86;101183.53;5071052;28;20559;-75
2020/12/17 04:54:46;;;;;;;20.50;18.15;;;11.40;99.90;;;11.39;86.65;101162.41;5072270;28;20474;-75
2020/12/17 04:57:16;;;;;;;18.88;17.08;;;11.40;99.90;;;11.56;86.68;101205.59;5072280;28;20055;-75
2020/12/17 04:59:46;;;;;;;19.05;16.95;;;11.30;99.90;;;11.45;87.07;101205.66;5072043;28;20044;-75
2020/12/17 05:02:16;;;;;;;19.08;17.08;;;11.20;99.90;;;11.38;87.16;101187.13;5072269;28;20070;-75
2020/12/17 05:04:45;;;;;;;19.52;17.48;;;11.20;99.90;;;11.47;87.14;101221.53;5072262;28;20143;-75
2020/12/17 05:07:16;;;;;;;19.65;17.55;;;11.20;99.90;;;11.38;87.44;101213.63;5072353;28;20044;-74
2020/12/17 05:09:45;;;;;;;19.67;17.70;;;11.10;99.90;;;11.19;87.75;101196.00;5071830;28;20036;-83
2020/12/17 05:12:14;;;;;;;19.40;17.40;;;11.10;99.90;;;11.16;87.88;101196.00;5072365;28;20040;-79
2020/12/17 05:14:43;;;;;;;19.45;17.52;;;11.00;99.90;;;11.16;88.34;101233.94;5072213;28;20079;-75
2020/12/17 05:17:11;;;;;;;19.40;17.25;;;10.90;99.90;;;11.27;88.10;101223.31;5072115;28;20111;-76
2020/12/17 05:19:42;;;;;;;19.17;17.17;;;11.00;99.90;;;11.34;87.66;101225.09;5072161;28;20449;-76
2020/12/17 05:22:13;;;;;;;19.15;17.15;;;11.00;99.90;;;11.35;87.91;101259.53;5072163;28;20054;-77
2020/12/17 05:24:44;;;;;;;19.80;17.70;;;11.00;99.90;;;11.23;87.90;101243.63;5072143;28;20041;-79
2020/12/17 05:27:11;;;;;;;18.42;16.50;;;11.00;99.90;;;11.05;88.01;101206.63;5071865;28;20060;-78
2020/12/17 05:29:42;;;;;;;19.55;17.25;;;11.00;99.90;;;11.18;87.83;101218.06;5072056;28;20115;-80
2020/12/17 05:32:11;;;;;;;;;;;11.00;99.90;;;11.01;87.57;101204.84;5072183;28;20067;-80
2020/12/17 05:34:39;;;;;;;18.42;16.30;;;11.00;99.90;;;11.27;87.68;101236.56;5071977;28;20296;-80
2020/12/17 05:37:07;;;;;;;18.73;16.83;;;11.00;99.90;;;11.23;87.44;101248.03;5071739;28;20048;-78
2020/12/17 05:39:43;;;;;;;18.65;16.73;;;11.00;99.90;;;11.32;87.40;101253.34;5071857;28;20045;-78
2020/12/17 05:42:13;;;;;;;19.10;16.20;;;11.00;99.90;;;11.29;87.24;101259.53;5072120;28;20165;-76
2020/12/17 05:44:41;;;;;;;17.42;15.77;;;11.00;99.90;;;11.28;87.20;101263.06;5071916;28;20041;-81
2020/12/17 05:47:14;;;;;;;17.50;15.75;;;11.00;99.90;;;11.28;87.15;101268.38;5071594;28;20490;-77
2020/12/17 05:49:41;;;;;;;17.02;15.20;;;11.00;99.90;;;11.28;86.88;101263.06;5071776;28;20037;-77
2020/12/17 05:52:14;;;;;;;18.17;16.35;;;11.00;99.90;;;11.13;87.16;101271.00;5073577;28;20037;-77
2020/12/17 05:54:59;;;;;;;17.77;16.08;;;10.90;99.90;;;11.15;87.40;101268.38;5075635;28;20040;-77
2020/12/17 05:57:27;;;;;;;18.45;16.35;;;11.00;99.90;;;11.01;87.47;101256.91;5074266;28;20048;-77
2020/12/17 05:59:57;;;;;;;18.45;16.17;;;11.00;99.90;;;11.15;87.59;101273.66;5075246;28;20078;-76
2020/12/17 06:02:26;;;;;;;19.50;17.50;;;10.90;99.90;;;11.15;87.62;101277.19;5074166;28;20040;-76
2020/12/17 06:05:07;;;;;;;19.15;17.08;;;10.90;99.90;;;11.03;87.74;101269.25;5075143;28;20575;-76
2020/12/17 06:07:49;;;;;;;17.27;15.57;;;10.90;99.90;;;11.18;87.90;101297.47;5074169;28;20432;-77
2020/12/17 06:10:23;;;;;;;18.27;16.17;;;11.00;99.90;;;11.00;87.80;101263.94;5073800;28;20559;-78
2020/12/17 06:12:53;;;;;;;17.92;16.02;;;10.90;99.90;;;11.21;87.72;101303.66;5075241;28;20059;-76
2020/12/17 06:15:23;;;;;;;19.30;17.08;;;11.00;99.90;;;11.20;87.47;101272.78;5075247;28;20045;-77
2020/12/17 06:17:53;;;;;;;18.92;16.92;;;11.10;99.90;;;11.40;87.39;101292.16;5075222;28;20486;-76
2020/12/17 06:20:23;;;;;;;19.00;17.02;;;11.10;99.90;;;11.45;86.88;101300.13;5075081;28;20052;-77
2020/12/17 06:22:54;;;;;;;20.02;17.95;;;11.20;99.90;;;11.42;86.53;101290.41;5075134;28;20049;-79
2020/12/17 06:25:23;;;;;;;20.25;17.27;;;11.20;99.90;;;11.26;86.38;101240.13;5074562;28;20576;-79
2020/12/17 06:27:52;;;;;;;19.50;17.52;;;11.30;99.90;;;11.64;86.13;101292.16;5074989;28;20056;-78
2020/12/17 06:30:23;;;;;;;20.35;18.08;;;11.40;99.90;;;10.41;85.61;101078.78;5074866;28;20516;-79
2020/12/17 06:32:56;;;;;;;20.38;18.27;;;11.40;99.90;;;11.62;85.85;101301.88;5074626;28;20063;-77
2020/12/17 06:35:44;;;;;;;18.88;17.05;;;11.40;99.90;;;11.31;86.03;101247.16;5074591;28;20552;-76
2020/12/17 06:38:15;;;;;;;18.73;16.90;;;11.30;99.90;;;11.48;86.22;101301.00;5074618;28;20048;-76
2020/12/17 06:40:43;;;;;;;21.05;17.88;;;11.30;99.90;;;11.13;86.89;101272.78;5074867;28;20044;-77
2020/12/17 06:43:17;;;;;;;19.58;17.48;;;11.20;99.90;;;11.39;87.18;101300.13;5074762;28;20110;-76
2020/12/17 06:45:45;;;;;;;19.88;17.85;;;11.20;99.90;;;11.35;87.37;101304.53;5074628;28;20048;-76
2020/12/17 06:48:32;;;;;;;21.27;19.00;;;11.20;99.90;;;11.19;87.72;101286.88;5074577;28;20090;-76
2020/12/17 06:51:00;;;;;;;21.73;19.52;;;11.10;99.90;;;11.04;87.99;101281.59;5074426;28;20040;-77
2020/12/17 06:53:39;;;;;;;25.42;19.50;;;11.00;99.90;;;11.07;88.56;101296.59;5074344;28;20048;-76
2020/12/17 06:56:06;;;;;;;22.58;20.27;;;11.00;99.90;;;11.16;88.93;101308.09;5074397;28;20048;-76
2020/12/17 06:58:34;;;;;;;21.83;19.52;;;10.90;99.90;;;11.22;88.77;101307.19;5074163;28;20037;-76
2020/12/17 07:01:02;;;;;;;22.00;19.15;;;10.90;99.90;;;11.18;89.01;101305.44;5074134;28;20158;-76
2020/12/17 07:03:46;;;;;;;22.00;19.50;;;11.00;99.90;;;10.93;88.71;101251.59;5073605;28;20064;-77
2020/12/17 07:06:17;;;;;;;21.45;19.15;;;11.00;99.90;;;11.13;88.47;101304.56;5074264;28;20068;-77
2020/12/17 07:08:47;;;;;;;21.50;19.20;;;11.00;99.90;;;11.07;89.09;101323.94;5074383;28;20393;-77
2020/12/17 07:11:37;;;;;;;21.13;18.92;;;10.90;99.90;;;11.10;89.23;101321.31;5074072;28;20042;-78
2020/12/17 07:14:06;;;;;;;20.60;18.48;;;10.90;99.90;;;11.13;89.22;101326.59;5073889;28;20378;-77
2020/12/17 07:16:36;;;;;;;21.20;18.20;;;10.90;99.90;;;11.16;89.03;101331.91;5074082;28;20043;-78
2020/12/17 07:19:24;;;;;;;21.13;18.90;;;10.90;99.90;;;8.80;88.58;100927.97;5073130;28;20061;-78
2020/12/17 07:21:55;;;;;;;19.77;17.65;;;10.90;99.90;;;11.22;89.01;101347.81;5073711;28;20044;-78
2020/12/17 07:24:28;;;;;;;22.55;19.45;;;11.00;99.90;;;11.29;88.72;101353.97;5074008;28;20044;-78
2020/12/17 07:27:01;;;;;;;24.40;19.63;;;11.00;99.90;;;11.26;88.63;101356.63;5073855;28;20057;-78
2020/12/17 07:29:42;;;;;;;27.27;21.00;;;11.00;99.90;;;10.72;88.38;101281.56;5073960;28;20040;-77
2020/12/17 07:32:32;;;;;;;22.45;20.08;;;11.10;99.90;;;11.24;88.94;101361.03;5073833;28;20128;-78
2020/12/17 07:35:20;;;;;;;23.85;20.38;;;11.00;99.90;;;11.15;89.15;101375.13;5073220;28;20048;-76
2020/12/17 07:37:52;;;;;;;22.75;19.90;;;11.00;99.90;;;11.20;89.20;101376.03;5072361;28;20042;-78
2020/12/17 07:40:27;;;;;;;23.83;20.60;;;11.00;99.90;;;11.18;89.21;101364.56;5073814;28;20044;-78
2020/12/17 07:43:11;;;;;;;22.98;19.83;;;11.00;99.90;;;11.19;89.27;101374.25;5073696;28;20165;-78
2020/12/17 07:45:48;;;;;;;23.13;19.80;;;11.00;99.90;;;11.12;89.38;101372.50;5072260;28;20591;-78
2020/12/17 07:48:43;;;;;;;23.35;20.48;;;10.90;99.90;;;11.14;89.36;101370.75;5073513;28;20053;-78
2020/12/17 07:51:34;;;;;;;21.77;18.50;;;10.90;99.90;;;11.09;89.57;101372.47;5073445;28;20047;-78
2020/12/17 07:54:06;;;;;;;20.90;18.42;;;10.90;99.90;;;11.03;89.08;101342.50;5073358;28;20032;-78
2020/12/17 07:56:33;;;;;;;25.42;18.25;;;11.00;99.90;;;10.45;89.05;101251.56;5073121;28;20135;-78
2020/12/17 07:59:05;;;;;;;20.58;17.75;;;10.90;99.90;;;11.16;88.76;101361.03;5071899;28;20527;-77
2020/12/17 08:01:33;;;;;;;22.63;17.80;;;10.90;99.90;;;11.06;88.91;101377.78;5072904;28;20052;-79
2020/12/17 08:04:02;;;;;;;25.65;17.27;;;10.90;99.90;;;10.75;89.35;101341.53;5073125;28;20044;-78
2020/12/17 08:06:29;;;;;;;23.83;17.48;;;10.80;99.90;;;10.88;89.41;101386.56;5072724;28;20052;-79
2020/12/17 08:08:59;;;;;;;23.73;17.13;;;10.80;99.90;;;11.00;89.67;101395.41;5073068;28;20052;-78
2020/12/17 08:11:39;;;;;;;20.08;17.17;;;10.80;99.90;;;10.97;89.53;101406.91;5072680;28;20044;-78
2020/12/17 08:14:09;;;;;;;23.25;16.65;;;10.80;99.90;;;11.08;89.29;101399.84;5071870;28;20098;-79
2020/12/17 08:16:37;;;;;;;26.92;17.42;;;10.80;99.90;;;11.11;89.08;101421.03;5072920;28;20045;-79
2020/12/17 08:19:06;;;;;;;21.10;16.35;;;10.90;99.90;;;11.09;89.05;101412.19;5072781;28;20064;-79
2020/12/17 08:21:33;;;;;;;20.33;16.00;;;10.90;99.90;;;10.97;89.02;101414.84;5072832;28;20037;-78
2020/12/17 08:24:01;;;;;;;18.60;15.40;;;10.80;99.90;;;10.93;88.83;101410.41;5072599;28;20064;-79
2020/12/17 08:26:30;;;;;;;24.95;15.57;;;10.80;99.90;;;10.93;89.00;101394.53;5072455;28;20060;-79
2020/12/17 08:28:57;;;;;;;27.45;15.40;;;10.80;99.90;;;10.95;88.91;101413.94;5072648;28;20068;-79
2020/12/17 08:31:28;;;;;;;19.55;13.90;;;10.80;99.90;;;10.89;88.79;101419.22;5072264;28;20456;-81
2020/12/17 08:33:58;;;;;;;19.02;14.32;;;10.70;99.90;;;10.89;88.97;101432.44;5072325;28;20052;-81
2020/12/17 08:36:29;;;;;;;16.35;13.07;;;10.70;99.90;;;10.84;88.90;101431.53;5072882;28;20059;-81
2020/12/17 08:38:59;;;;;;;18.65;12.32;;;10.70;99.90;;;10.80;88.74;101430.63;5072400;28;20132;-81
2020/12/17 08:41:29;;;;;;;15.88;12.90;;;10.60;99.90;;;10.74;89.03;101440.34;5072280;28;20470;-80
2020/12/17 08:44:01;;;;;;;;;;;10.60;99.90;;;10.69;89.11;101447.34;5073035;28;20044;-81
2020/12/17 08:46:33;;;;;;;19.55;11.82;;;10.50;99.90;;;10.69;88.99;101448.25;5072309;28;19974;-83
2020/12/17 08:49:05;;;;;;;15.68;12.02;;;10.50;99.90;;;10.75;89.27;101452.66;5071148;28;20051;-82
2020/12/17 08:51:35;;;;;;;17.92;12.25;;;10.50;99.90;;;10.74;89.17;101441.19;5071052;28;20056;-82
2020/12/17 08:54:04;;;;;;;19.95;11.40;;;10.60;99.90;;;10.76;88.82;101460.59;5072108;28;20044;-83
2020/12/17 08:56:32;;;;;;;15.68;11.52;;;10.60;99.90;;;10.93;89.04;101458.03;5072185;28;20110;-82
2020/12/17 08:59:05;;;;;;;16.15;11.50;;;10.70;99.90;;;11.27;88.42;101454.59;5072015;28;20040;-84
2020/12/17 09:01:35;;;;;;;13.93;10.50;;;11.00;99.90;;;11.70;86.52;101460.88;5072420;28;20051;-85
2020/12/17 09:04:07;;;;;;;16.98;10.18;;;11.40;99.90;;;12.07;84.74;101473.25;5070997;28;20113;-84
2020/12/17 09:06:37;;;;;;;17.40;9.57;;;11.80;99.90;;;11.82;83.19;101394.63;5072044;28;20049;-86
2020/12/17 09:09:14;;;;;;;15.80;9.23;;;12.10;99.90;;;12.70;81.73;101489.03;5070923;28;20494;-86
2020/12/17 09:11:46;;;;;;;18.17;8.75;;;12.40;99.90;;;12.81;80.12;101488.13;5071825;28;20071;-86
2020/12/17 09:14:19;;;;;;;15.73;8.55;;;12.60;99.90;;;12.90;79.08;101478.34;5071912;28;20043;-86
2020/12/17 09:16:49;;;;;;;15.38;8.73;;;12.80;99.90;;;12.87;79.08;101496.06;5071989;28;20482;-86
2020/12/17 09:19:17;;;;;;;13.57;8.97;;;12.70;99.90;;;12.91;78.57;101496.03;5072131;28;20045;-85
2020/12/17 09:21:59;;;;;;;18.65;9.00;;;12.70;99.90;;;13.02;78.62;101512.81;5071980;28;20040;-82
2020/12/17 09:24:27;;;;;;;16.83;8.52;;;12.80;99.90;;;13.25;77.62;101518.94;5072090;28;20040;-86
2020/12/17 09:27:16;;;;;;;12.57;8.38;;;13.00;99.90;;;13.26;77.06;101523.34;5075295;28;20084;-85
2020/12/17 09:29:44;;;;;;;11.88;7.22;;;13.10;99.90;;;13.27;76.76;101526.91;5075863;28;20106;-86
2020/12/17 09:32:19;;;;;;;16.20;8.55;;;13.10;99.90;;;13.33;76.66;101535.75;5075553;28;20041;-85
2020/12/17 09:34:46;;;;;;;12.95;8.07;;;13.10;99.90;;;13.34;76.18;101537.47;5076075;28;20045;-83
2020/12/17 09:37:15;;;;;;;14.55;8.70;;;13.20;99.90;;;13.30;76.07;101530.41;5074670;28;20127;-84
2020/12/17 09:39:43;;;;;;;15.05;8.15;;;13.20;99.90;;;13.29;75.87;101523.34;5075835;28;20397;-84
2020/12/17 09:42:24;;;;;;;17.15;8.60;;;13.20;99.90;;;13.28;76.16;101536.63;5075470;28;20123;-84
2020/12/17 09:44:52;;;;;;;16.08;7.68;;;13.10;99.90;;;13.05;76.40;101534.06;5075841;28;20117;-82
2020/12/17 09:47:33;;;;;;;15.82;8.07;;;12.90;99.90;;;13.07;76.98;101550.88;5075668;28;20036;-83
2020/12/17 09:50:15;;;;;;;15.63;8.48;;;12.80;99.90;;;12.95;77.10;101564.16;5075411;28;20036;-84
2020/12/17 09:52:44;;;;;;;13.77;8.57;;;12.80;99.90;;;13.16;76.92;101542.88;5075545;28;20127;-82
2020/12/17 09:55:13;;;;;;;19.55;8.45;;;12.90;99.90;;;13.31;76.60;101557.88;5075533;28;20135;-81
2020/12/17 09:57:43;;;;;;;15.63;8.23;;;13.10;99.90;;;13.29;75.90;101541.06;5075245;28;20048;-83
2020/12/17 10:00:13;;;;;;;;;;;13.20;99.90;;;13.44;75.53;101562.25;5075722;28;20111;-83
2020/12/17 10:02:41;;;;;;;17.27;8.13;;;13.20;99.90;;;13.58;74.92;101534.72;5075293;28;19974;-82
2020/12/17 10:05:11;;;;;;;17.17;7.70;;;13.40;99.90;;;13.56;74.86;101560.41;5075274;28;20052;-83
2020/12/17 10:07:38;;;;;;;16.17;7.90;;;13.40;99.90;;;13.60;74.56;101553.31;5075190;28;20044;-80
2020/12/17 10:10:07;;;;;;;17.55;8.23;;;13.50;99.90;;;13.45;74.59;101564.88;5075099;28;20043;-82
2020/12/17 10:12:41;;;;;;;17.00;7.93;;;13.30;99.90;;;13.27;75.54;101574.72;5075390;28;20115;-82
2020/12/17 10:15:09;;;;;;;16.80;7.43;;;13.10;99.90;;;13.07;76.09;101577.44;5074976;28;20040;-82